Terminal Aerodrome Forecast
Issued by NWS

Current Version | Previous Version | Text Only | Print | Product List | Glossary Off
Versions: 1 2 3 4 5 6 7 8 9 10 11 12 13 14 15 16 17 18 19 20 21

664
FTUS41 KPBZ 200404 AAA
TAFHLG
TAF AMD
KHLG 200404Z 2004/2024 07004KT 4SM BR SKC
     FM200700 09004KT P6SM BKN050
     FM201100 13005KT 3SM -RA BR SCT008 OVC010 WS020/18035KT
     FM201400 16006KT 3SM -RA BKN008
     FM201800 21008KT P6SM VCSH SCT008 OVC015=

USA.gov is the U.S. government's official web portal to all federal, state and local government web resources and services.